createdAt,value
2023-03-20T00:00:42.193Z,2.35
2023-03-20T00:03:44.168Z,2.33
2023-03-20T00:06:45.814Z,2.30
2023-03-20T00:09:47.818Z,2.20
2023-03-20T00:12:50.182Z,2.72
2023-03-20T00:15:56.493Z,2.70
2023-03-20T00:18:58.781Z,2.15
2023-03-20T00:22:00.850Z,1.90
2023-03-20T00:25:02.367Z,2.50
2023-03-20T00:28:28.614Z,2.30
2023-03-20T00:31:38.353Z,1.95
2023-03-20T00:34:39.883Z,2.63
2023-03-20T00:37:41.358Z,2.10
2023-03-20T00:40:42.955Z,2.47
2023-03-20T00:43:48.181Z,2.22
2023-03-20T00:46:54.003Z,2.50
2023-03-20T00:49:58.672Z,2.50
2023-03-20T00:53:00.670Z,2.22
2023-03-20T00:56:02.811Z,2.50
2023-03-20T00:59:04.884Z,3.17
2023-03-20T01:02:06.844Z,2.78
2023-03-20T01:05:08.661Z,2.85
2023-03-20T01:08:28.107Z,2.70
2023-03-20T01:11:29.638Z,2.85
2023-03-20T01:14:31.224Z,2.85
2023-03-20T01:17:32.903Z,2.78
2023-03-20T01:20:34.423Z,3.00
2023-03-20T01:23:35.920Z,2.60
2023-03-20T01:26:40.222Z,2.80
2023-03-20T01:29:42.184Z,2.78
2023-03-20T01:32:44.592Z,3.10
2023-03-20T01:35:48.058Z,2.95
2023-03-20T01:38:56.530Z,3.10
2023-03-20T01:41:58.674Z,2.58
2023-03-20T01:45:02.046Z,2.67
2023-03-20T01:48:16.949Z,2.80
2023-03-20T01:51:24.366Z,2.20
2023-03-20T01:54:37.422Z,2.70
2023-03-20T01:57:45.248Z,2.80
2023-03-20T02:00:49.108Z,2.33
2023-03-20T02:03:52.637Z,2.58
2023-03-20T02:07:20.152Z,2.88
2023-03-20T02:10:36.717Z,2.65
2023-03-20T02:13:55.722Z,2.58
2023-03-20T02:16:58.697Z,2.80
2023-03-20T02:20:32.913Z,3.00
2023-03-20T02:23:40.665Z,3.28
2023-03-20T02:27:08.856Z,3.67
2023-03-20T02:30:45.929Z,2.72
2023-03-20T02:34:03.647Z,3.10
2023-03-20T02:37:23.892Z,2.92
2023-03-20T02:40:37.012Z,2.28
2023-03-20T02:43:48.451Z,2.47
2023-03-20T02:47:16.457Z,6.57
2023-03-20T02:50:42.998Z,3.47
2023-03-20T02:53:55.353Z,2.20
2023-03-20T02:57:04.271Z,2.92
2023-03-20T03:00:14.020Z,2.97
2023-03-20T03:03:22.719Z,2.47
2023-03-20T03:06:31.476Z,2.75
2023-03-20T03:09:41.369Z,3.08
2023-03-20T03:12:46.955Z,3.40
2023-03-20T03:15:54.071Z,2.85
2023-03-20T03:19:18.614Z,3.30
2023-03-20T03:22:21.423Z,3.30
2023-03-20T03:25:27.016Z,3.05
2023-03-20T03:28:38.800Z,3.38
2023-03-20T03:31:41.232Z,2.80
2023-03-20T03:34:43.290Z,2.78
2023-03-20T03:38:06.579Z,2.80
2023-03-20T03:41:30.898Z,2.92
2023-03-20T03:44:42.853Z,2.70
2023-03-20T03:47:57.393Z,2.47
2023-03-20T03:51:05.792Z,2.33
2023-03-20T03:54:16.659Z,1.98
2023-03-20T03:57:29.635Z,2.90
2023-03-20T04:00:34.041Z,2.40
2023-03-20T04:03:40.141Z,2.53
2023-03-20T04:06:42.323Z,2.42
2023-03-20T04:09:43.956Z,2.65
2023-03-20T04:12:45.897Z,2.83
2023-03-20T04:15:47.412Z,2.35
2023-03-20T04:18:49.676Z,2.42
2023-03-20T04:21:51.992Z,2.30
2023-03-20T04:24:53.754Z,3.42
2023-03-20T04:27:55.692Z,3.30
2023-03-20T04:31:26.109Z,3.17
2023-03-20T04:34:40.088Z,2.60
2023-03-20T04:37:58.897Z,2.20
2023-03-20T04:41:01.451Z,2.15
2023-03-20T04:44:03.557Z,2.28
2023-03-20T04:47:07.141Z,2.15
2023-03-20T04:50:13.891Z,2.47
2023-03-20T04:53:15.954Z,2.83
2023-03-20T04:56:18.187Z,2.65
2023-03-20T04:59:20.946Z,2.25
2023-03-20T05:02:22.698Z,2.53
2023-03-20T05:05:24.619Z,2.40
2023-03-20T05:08:26.176Z,2.40
2023-03-20T05:11:32.036Z,2.53
2023-03-20T05:14:46.424Z,2.53
2023-03-20T05:18:12.301Z,3.33
2023-03-20T05:21:32.630Z,2.95
2023-03-20T05:24:46.783Z,3.20
2023-03-20T05:28:06.821Z,3.15
2023-03-20T05:31:23.187Z,2.45
2023-03-20T05:34:45.042Z,2.20
2023-03-20T05:37:53.813Z,2.03
2023-03-20T05:41:06.556Z,2.38
2023-03-20T05:44:18.272Z,2.58
2023-03-20T05:47:54.959Z,2.45
2023-03-20T05:51:02.621Z,2.80
2023-03-20T05:54:22.442Z,2.22
2023-03-20T05:57:59.455Z,2.50
2023-03-20T06:01:21.630Z,2.10
2023-03-20T06:04:37.355Z,2.35
2023-03-20T06:07:47.762Z,3.20
2023-03-20T06:10:51.547Z,2.70
2023-03-20T06:13:55.650Z,3.75
2023-03-20T06:17:01.583Z,3.13
2023-03-20T06:20:03.616Z,2.58
2023-03-20T06:23:06.232Z,2.13
2023-03-20T06:26:08.153Z,2.63
2023-03-20T06:29:22.045Z,3.35
2023-03-20T06:32:27.102Z,3.20
2023-03-20T06:35:32.076Z,3.00
2023-03-20T06:38:33.771Z,2.75
2023-03-20T06:41:41.417Z,3.08
2023-03-20T06:44:44.984Z,3.08
2023-03-20T06:48:09.238Z,3.20
2023-03-20T06:51:10.852Z,3.40
2023-03-20T06:54:23.140Z,3.47
2023-03-20T06:57:25.912Z,3.63
2023-03-20T07:00:27.536Z,3.38
2023-03-20T07:03:30.122Z,3.10
2023-03-20T07:06:33.562Z,3.00
2023-03-20T07:09:35.683Z,2.80
2023-03-20T07:12:37.668Z,3.33
2023-03-20T07:15:39.208Z,3.50
2023-03-20T07:18:42.424Z,3.05
2023-03-20T07:21:44.961Z,3.42
2023-03-20T07:24:48.846Z,3.25
2023-03-20T07:27:50.907Z,3.15
2023-03-20T07:30:56.085Z,2.78
2023-03-20T07:33:59.488Z,3.10
2023-03-20T07:37:01.339Z,3.10
2023-03-20T07:40:04.704Z,3.05
2023-03-20T07:43:08.772Z,3.80
2023-03-20T07:46:36.266Z,3.00
2023-03-20T07:49:39.348Z,3.33
2023-03-20T07:52:51.341Z,3.50
2023-03-20T07:55:55.814Z,3.50
2023-03-20T07:58:57.330Z,3.50
2023-03-20T08:01:58.851Z,3.17
2023-03-20T08:05:00.707Z,3.45
2023-03-20T08:08:02.475Z,3.65
2023-03-20T08:11:04.526Z,2.95
2023-03-20T08:14:06.073Z,3.13
2023-03-20T08:17:14.902Z,3.45
2023-03-20T08:20:17.561Z,3.75
2023-03-20T08:23:20.755Z,3.40
2023-03-20T08:26:23.058Z,3.17
2023-03-20T08:29:24.635Z,3.70
2023-03-20T08:32:26.560Z,3.30
2023-03-20T08:35:33.204Z,3.10
2023-03-20T08:38:35.963Z,2.97
2023-03-20T08:41:43.554Z,3.20
2023-03-20T08:44:45.707Z,2.97
2023-03-20T08:47:48.745Z,3.13
2023-03-20T08:50:50.447Z,3.20
2023-03-20T08:53:52.106Z,3.20
2023-03-20T08:56:53.659Z,3.00
2023-03-20T08:59:55.165Z,3.72
2023-03-20T09:02:57.095Z,3.47
2023-03-20T09:05:58.762Z,3.60
2023-03-20T09:09:00.419Z,3.40
2023-03-20T09:12:01.973Z,3.25
2023-03-20T09:15:05.184Z,2.97
2023-03-20T09:18:06.650Z,2.87
2023-03-20T09:21:08.325Z,2.60
2023-03-20T09:24:09.936Z,2.90
2023-03-20T09:27:13.859Z,2.75
2023-03-20T09:30:15.676Z,2.88
2023-03-20T09:33:18.545Z,2.80
2023-03-20T09:36:20.145Z,2.65
2023-03-20T09:39:21.694Z,2.40
2023-03-20T09:42:55.706Z,2.50
2023-03-20T09:46:19.882Z,2.90
2023-03-20T09:49:25.462Z,2.72
2023-03-20T09:52:36.094Z,2.47
2023-03-20T09:55:40.510Z,2.55
2023-03-20T09:58:42.668Z,2.45
2023-03-20T10:01:55.521Z,2.33
2023-03-20T10:04:57.443Z,1.77
2023-03-20T10:08:01.955Z,1.88
2023-03-20T10:11:22.863Z,1.88
2023-03-20T10:14:48.277Z,1.70
2023-03-20T10:18:08.196Z,1.88
2023-03-20T10:21:18.957Z,1.90
2023-03-20T10:24:32.085Z,2.08
2023-03-20T10:27:43.901Z,2.42
2023-03-20T10:31:09.833Z,2.13
2023-03-20T10:34:44.052Z,2.30
2023-03-20T10:38:02.899Z,2.20
2023-03-20T10:41:13.030Z,2.22
2023-03-20T10:44:19.020Z,2.58
2023-03-20T10:47:24.573Z,2.55
2023-03-20T10:50:36.355Z,2.70
2023-03-20T10:53:47.316Z,2.30
2023-03-20T10:56:51.929Z,2.45
2023-03-20T10:59:58.737Z,2.63
2023-03-20T11:03:00.247Z,2.45
2023-03-20T11:06:10.080Z,2.65
2023-03-20T11:09:19.148Z,2.42
2023-03-20T11:12:20.989Z,2.40
2023-03-20T11:15:32.691Z,2.17
2023-03-20T11:18:34.541Z,2.40
2023-03-20T11:21:46.699Z,2.58
2023-03-20T11:24:54.082Z,2.05
2023-03-20T11:27:56.474Z,1.98
2023-03-20T11:31:04.737Z,2.00
2023-03-20T11:34:06.771Z,1.75
2023-03-20T11:37:23.881Z,2.20
2023-03-20T11:40:31.785Z,1.83
2023-03-20T11:43:38.218Z,2.00
2023-03-20T11:46:39.934Z,2.22
2023-03-20T11:49:53.841Z,1.77
2023-03-20T11:52:55.792Z,2.15
2023-03-20T11:56:21.668Z,2.30
2023-03-20T11:59:27.378Z,2.38
2023-03-20T12:02:29.085Z,2.50
2023-03-20T12:05:39.533Z,3.00
2023-03-20T12:08:46.090Z,2.72
2023-03-20T12:12:00.136Z,2.60
2023-03-20T12:15:31.788Z,2.72
2023-03-20T12:18:45.487Z,2.60
2023-03-20T12:21:55.769Z,2.83
2023-03-20T12:25:23.219Z,2.30
2023-03-20T12:28:48.233Z,2.40
2023-03-20T12:31:58.343Z,2.45
2023-03-20T12:35:11.126Z,2.50
2023-03-20T12:38:23.540Z,2.83
2023-03-20T12:41:30.613Z,2.65
2023-03-20T12:44:51.077Z,2.30
2023-03-20T12:48:06.769Z,2.80
2023-03-20T12:51:24.461Z,2.70
2023-03-20T12:54:36.424Z,2.33
2023-03-20T12:58:27.065Z,2.38
2023-03-20T13:01:45.953Z,2.50
2023-03-20T13:04:55.887Z,2.42
2023-03-20T13:08:29.460Z,2.22
2023-03-20T13:11:39.145Z,2.40
2023-03-20T13:14:46.122Z,2.70
2023-03-20T13:17:59.830Z,2.45
2023-03-20T13:21:10.649Z,2.45
2023-03-20T13:24:26.004Z,2.42
2023-03-20T13:27:39.202Z,2.15
2023-03-20T13:30:54.018Z,1.80
2023-03-20T13:34:02.247Z,2.53
2023-03-20T13:37:44.267Z,2.35
2023-03-20T13:40:47.200Z,2.40
2023-03-20T13:43:54.201Z,2.25
2023-03-20T13:47:19.267Z,3.58
2023-03-20T13:50:39.050Z,2.40
2023-03-20T13:54:17.880Z,2.63
2023-03-20T13:57:46.367Z,2.25
2023-03-20T14:01:05.839Z,2.20
2023-03-20T14:04:16.040Z,1.85
2023-03-20T14:07:33.850Z,1.65
2023-03-20T14:10:36.968Z,1.75
2023-03-20T14:13:40.084Z,1.88
2023-03-20T14:16:42.334Z,2.17
2023-03-20T14:19:44.005Z,1.77
2023-03-20T14:22:46.314Z,1.63
2023-03-20T14:25:48.481Z,1.95
2023-03-20T14:29:13.258Z,1.63
2023-03-20T14:32:14.818Z,1.90
2023-03-20T14:35:26.788Z,1.77
2023-03-20T14:39:10.093Z,1.95
2023-03-20T14:42:37.161Z,1.90
2023-03-20T14:45:44.767Z,2.40
2023-03-20T14:48:52.572Z,1.63
2023-03-20T14:52:09.507Z,1.80
2023-03-20T14:55:32.515Z,1.90
2023-03-20T14:58:40.202Z,1.77
2023-03-20T15:01:46.303Z,1.92
2023-03-20T15:04:48.494Z,2.00
2023-03-20T15:07:50.256Z,1.67
2023-03-20T15:10:56.688Z,1.33
2023-03-20T15:14:00.964Z,1.80
2023-03-20T15:17:03.848Z,1.40
2023-03-20T15:20:25.113Z,1.25
2023-03-20T15:23:26.627Z,1.40
2023-03-20T15:26:30.217Z,1.88
2023-03-20T15:29:33.074Z,1.75
2023-03-20T15:32:35.796Z,1.70
2023-03-20T15:35:38.913Z,1.83
2023-03-20T15:38:40.564Z,1.77
2023-03-20T15:41:51.110Z,1.92
2023-03-20T15:44:55.860Z,1.80
2023-03-20T15:48:18.452Z,1.98
2023-03-20T15:51:24.497Z,2.22
2023-03-20T15:54:37.375Z,1.98
2023-03-20T15:57:41.064Z,2.17
2023-03-20T16:00:45.790Z,3.05
2023-03-20T16:03:48.051Z,2.10
2023-03-20T16:06:56.142Z,1.70
2023-03-20T16:09:59.411Z,2.20
2023-03-20T16:13:01.762Z,2.30
2023-03-20T16:16:04.849Z,1.67
2023-03-20T16:19:07.876Z,1.50
2023-03-20T16:22:18.678Z,1.50
2023-03-20T16:25:20.467Z,2.22
2023-03-20T16:28:21.954Z,1.70
2023-03-20T16:31:28.614Z,1.52
2023-03-20T16:34:36.183Z,2.15
2023-03-20T16:37:43.568Z,1.80
2023-03-20T16:40:45.295Z,1.90
2023-03-20T16:43:54.309Z,2.38
2023-03-20T16:47:20.916Z,1.67
2023-03-20T16:50:23.718Z,2.00
2023-03-20T16:53:28.852Z,1.80
2023-03-20T16:56:36.960Z,1.90
2023-03-20T16:59:40.043Z,1.95
2023-03-20T17:02:41.708Z,1.30
2023-03-20T17:06:06.604Z,1.70
2023-03-20T17:09:08.047Z,1.40
2023-03-20T17:12:18.213Z,1.73
2023-03-20T17:15:23.676Z,1.90
2023-03-20T17:18:25.736Z,1.63
2023-03-20T17:21:27.719Z,2.00
2023-03-20T17:24:29.263Z,4.13
2023-03-20T17:27:31.029Z,4.13
2023-03-20T17:30:32.491Z,3.90
2023-03-20T17:33:36.660Z,3.65
2023-03-20T17:36:38.729Z,3.65
2023-03-20T17:39:40.730Z,3.78
2023-03-20T17:42:43.268Z,7.55
2023-03-20T17:45:46.151Z,8.98
2023-03-20T17:48:49.015Z,7.93
2023-03-20T17:51:50.615Z,5.70
2023-03-20T17:54:52.683Z,6.13
2023-03-20T17:57:54.129Z,4.20
2023-03-20T18:00:55.879Z,5.30
2023-03-20T18:03:57.482Z,4.90
2023-03-20T18:06:58.967Z,5.72
2023-03-20T18:10:00.455Z,2.83
2023-03-20T18:13:02.133Z,2.92
2023-03-20T18:16:03.854Z,21.67
2023-03-20T18:19:05.506Z,18.35
2023-03-20T18:22:07.161Z,4.72
2023-03-20T18:25:09.176Z,4.68
2023-03-20T18:28:18.554Z,5.25
2023-03-20T18:31:21.019Z,7.97
2023-03-20T18:34:22.625Z,5.63
2023-03-20T18:37:24.065Z,4.47
2023-03-20T18:40:28.718Z,4.22
2023-03-20T18:43:30.301Z,4.70
2023-03-20T18:46:31.977Z,4.50
2023-03-20T18:49:38.514Z,6.53
2023-03-20T18:52:40.246Z,8.65
2023-03-20T18:55:42.338Z,11.13
2023-03-20T18:58:45.278Z,6.15
2023-03-20T19:01:46.832Z,4.20
2023-03-20T19:04:48.473Z,4.78
2023-03-20T19:07:50.474Z,7.55
2023-03-20T19:10:52.263Z,12.55
2023-03-20T19:13:54.284Z,6.55
2023-03-20T19:16:56.254Z,5.75
2023-03-20T19:19:57.783Z,5.85
2023-03-20T19:23:01.222Z,5.40
2023-03-20T19:26:02.679Z,5.22
2023-03-20T19:29:09.225Z,4.15
2023-03-20T19:32:11.486Z,5.53
2023-03-20T19:35:44.226Z,5.28
2023-03-20T19:38:37.437Z,6.10
2023-03-20T19:41:39.410Z,4.85
2023-03-20T19:44:40.919Z,4.70
2023-03-20T19:47:42.382Z,5.45
2023-03-20T19:50:49.341Z,9.93
2023-03-20T19:53:50.856Z,10.18
2023-03-20T19:56:52.398Z,9.40
2023-03-20T19:59:53.921Z,9.55
2023-03-20T20:02:55.951Z,5.60
2023-03-20T20:05:59.217Z,5.38
2023-03-20T20:09:01.582Z,4.50
2023-03-20T20:12:04.267Z,4.50
2023-03-20T20:15:07.944Z,5.13
2023-03-20T20:18:09.548Z,5.22
2023-03-20T20:22:02.553Z,4.53
2023-03-20T20:24:33.885Z,4.80
2023-03-20T20:27:36.030Z,4.40
2023-03-20T20:30:38.918Z,4.28
2023-03-20T20:33:41.600Z,4.60
2023-03-20T20:37:29.099Z,4.05
2023-03-20T20:40:06.045Z,4.30
2023-03-20T20:43:10.277Z,4.57
2023-03-20T20:46:12.348Z,4.82
2023-03-20T20:49:19.585Z,4.70
2023-03-20T20:52:21.769Z,6.18
2023-03-20T20:55:25.035Z,6.35
2023-03-20T20:58:26.760Z,4.57
2023-03-20T21:01:28.448Z,4.75
2023-03-20T21:04:30.047Z,4.70
2023-03-20T21:07:31.650Z,4.75
2023-03-20T21:10:33.196Z,4.97
2023-03-20T21:13:36.771Z,4.88
2023-03-20T21:16:38.388Z,5.20
2023-03-20T21:19:41.187Z,4.28
2023-03-20T21:22:42.708Z,4.55
2023-03-20T21:25:47.827Z,4.20
2023-03-20T21:28:49.649Z,4.15
2023-03-20T21:31:51.663Z,3.80
2023-03-20T21:34:53.992Z,3.92
2023-03-20T21:41:17.517Z,3.25
2023-03-20T21:44:50.255Z,3.85
2023-03-20T21:48:23.591Z,3.72
2023-03-20T21:58:29.203Z,3.80
2023-03-20T22:01:48.912Z,3.10
2023-03-20T22:08:46.527Z,2.85
2023-03-20T22:18:42.232Z,3.72
2023-03-20T22:21:57.370Z,3.42
2023-03-20T22:32:01.985Z,3.90
2023-03-20T22:35:37.961Z,3.90
2023-03-20T22:42:13.902Z,3.55
2023-03-20T22:45:01.394Z,3.40
2023-03-20T22:48:05.542Z,4.07
2023-03-20T22:51:07.612Z,4.00
2023-03-20T22:54:09.120Z,4.00
2023-03-20T22:57:10.848Z,4.13
2023-03-20T23:00:14.360Z,4.38
2023-03-20T23:03:29.684Z,4.10
2023-03-20T23:06:38.185Z,3.65
2023-03-20T23:09:39.705Z,3.58
2023-03-20T23:12:43.899Z,3.47
2023-03-20T23:15:46.905Z,3.55
2023-03-20T23:18:48.456Z,3.78
2023-03-20T23:21:49.950Z,3.88
2023-03-20T23:24:52.128Z,3.97
2023-03-20T23:27:58.112Z,3.13
2023-03-20T23:31:10.492Z,3.55
2023-03-20T23:34:12.514Z,3.50
2023-03-20T23:37:14.287Z,3.30
2023-03-20T23:40:17.095Z,3.30
2023-03-20T23:43:19.388Z,3.00
2023-03-20T23:46:20.948Z,2.90
2023-03-20T23:49:22.549Z,2.80
2023-03-20T23:52:23.995Z,2.83
2023-03-20T23:55:25.539Z,2.95
2023-03-20T23:58:27.547Z,2.90
